createdAt,value
2023-05-24T00:00:33.814Z,8.55
2023-05-24T00:03:22.047Z,8.90
2023-05-24T00:05:50.469Z,8.88
2023-05-24T00:08:18.474Z,8.32
2023-05-24T00:10:46.878Z,8.70
2023-05-24T00:13:15.612Z,8.18
2023-05-24T00:15:43.586Z,8.60
2023-05-24T00:18:11.577Z,8.38
2023-05-24T00:20:40.118Z,7.75
2023-05-24T00:23:08.289Z,7.53
2023-05-24T00:25:36.346Z,8.02
2023-05-24T00:28:04.290Z,8.43
2023-05-24T00:30:32.164Z,8.00
2023-05-24T00:32:59.606Z,9.13
2023-05-24T00:35:27.801Z,7.85
2023-05-24T00:37:55.596Z,8.05
2023-05-24T00:40:23.497Z,9.07
2023-05-24T00:42:51.234Z,8.38
2023-05-24T00:45:19.838Z,7.88
2023-05-24T00:47:47.900Z,8.18
2023-05-24T00:50:17.402Z,7.82
2023-05-24T00:52:45.878Z,7.90
2023-05-24T00:55:14.555Z,8.32
2023-05-24T00:57:42.476Z,7.55
2023-05-24T01:00:11.997Z,8.10
2023-05-24T01:02:40.924Z,8.10
2023-05-24T01:05:13.819Z,8.20
2023-05-24T01:08:01.215Z,9.73
2023-05-24T01:10:59.019Z,9.23
2023-05-24T01:13:47.855Z,8.90
2023-05-24T01:16:26.339Z,8.32
2023-05-24T01:19:05.023Z,8.55
2023-05-24T01:21:48.608Z,9.15
2023-05-24T01:24:54.079Z,9.23
2023-05-24T01:27:23.687Z,8.60
2023-05-24T01:29:53.721Z,8.80
2023-05-24T01:32:22.849Z,8.18
2023-05-24T01:34:50.809Z,8.73
2023-05-24T01:37:18.823Z,9.30
2023-05-24T01:39:47.230Z,9.27
2023-05-24T01:43:11.233Z,9.05
2023-05-24T01:45:45.747Z,8.68
2023-05-24T01:48:20.517Z,9.55
2023-05-24T01:51:03.813Z,9.38
2023-05-24T01:53:38.570Z,9.05
2023-05-24T01:56:06.933Z,8.85
2023-05-24T01:58:36.752Z,9.38
2023-05-24T02:01:05.890Z,9.60
2023-05-24T02:03:34.270Z,9.48
2023-05-24T02:06:03.513Z,9.40
2023-05-24T02:08:31.417Z,9.30
2023-05-24T02:10:59.174Z,8.98
2023-05-24T02:13:27.373Z,9.25
2023-05-24T02:15:55.349Z,9.23
2023-05-24T02:18:23.202Z,9.40
2023-05-24T02:20:50.928Z,9.07
2023-05-24T02:23:19.614Z,9.40
2023-05-24T02:25:47.551Z,9.50
2023-05-24T02:28:16.009Z,9.52
2023-05-24T02:30:45.211Z,10.55
2023-05-24T02:33:13.503Z,9.80
2023-05-24T02:35:41.657Z,9.05
2023-05-24T02:38:10.226Z,9.43
2023-05-24T02:40:38.049Z,9.65
2023-05-24T02:43:06.467Z,9.70
2023-05-24T02:45:34.412Z,10.05
2023-05-24T02:48:02.931Z,9.45
2023-05-24T02:50:30.721Z,8.98
2023-05-24T02:52:59.209Z,9.95
2023-05-24T02:55:27.113Z,9.30
2023-05-24T02:57:55.767Z,9.88
2023-05-24T03:00:25.433Z,9.75
2023-05-24T03:03:00.983Z,9.32
2023-05-24T03:05:28.912Z,9.30
2023-05-24T03:07:57.357Z,9.27
2023-05-24T03:10:25.179Z,9.40
2023-05-24T03:12:53.050Z,10.15
2023-05-24T03:15:21.241Z,8.85
2023-05-24T03:17:49.705Z,8.98
2023-05-24T03:20:18.042Z,9.85
2023-05-24T03:22:47.117Z,9.20
2023-05-24T03:25:14.945Z,9.70
2023-05-24T03:27:43.477Z,8.95
2023-05-24T03:30:12.123Z,9.57
2023-05-24T03:32:51.827Z,8.80
2023-05-24T03:35:20.637Z,8.88
2023-05-24T03:37:50.110Z,9.00
2023-05-24T03:40:18.765Z,9.80
2023-05-24T03:42:57.261Z,9.35
2023-05-24T03:45:41.800Z,8.80
2023-05-24T03:48:09.872Z,9.52
2023-05-24T03:50:37.564Z,9.25
2023-05-24T03:53:05.898Z,9.48
2023-05-24T03:55:33.635Z,9.82
2023-05-24T03:58:02.301Z,10.18
2023-05-24T04:00:30.292Z,9.73
2023-05-24T04:02:58.699Z,9.35
2023-05-24T04:05:30.224Z,10.23
2023-05-24T04:07:58.810Z,9.23
2023-05-24T04:10:26.780Z,9.63
2023-05-24T04:12:57.296Z,10.38
2023-05-24T04:15:25.304Z,10.13
2023-05-24T04:17:55.366Z,9.18
2023-05-24T04:20:28.185Z,9.30
2023-05-24T04:22:56.507Z,9.98
2023-05-24T04:25:24.804Z,9.90
2023-05-24T04:27:52.718Z,9.73
2023-05-24T04:30:21.631Z,10.85
2023-05-24T04:32:52.985Z,9.23
2023-05-24T04:35:21.596Z,9.10
2023-05-24T04:37:50.551Z,9.60
2023-05-24T04:40:21.312Z,10.27
2023-05-24T04:42:51.245Z,8.98
2023-05-24T04:45:19.236Z,9.07
2023-05-24T04:47:47.583Z,9.25
2023-05-24T04:50:15.253Z,9.02
2023-05-24T04:52:43.316Z,8.55
2023-05-24T04:55:10.900Z,8.02
2023-05-24T04:57:39.287Z,8.20
2023-05-24T05:00:08.233Z,8.07
2023-05-24T05:02:36.258Z,8.35
2023-05-24T05:05:04.567Z,8.27
2023-05-24T05:07:32.528Z,7.85
2023-05-24T05:10:00.320Z,8.27
2023-05-24T05:12:28.531Z,8.40
2023-05-24T05:14:56.583Z,8.35
2023-05-24T05:17:24.473Z,8.32
2023-05-24T05:19:52.212Z,7.45
2023-05-24T05:22:20.784Z,8.30
2023-05-24T05:24:48.629Z,7.75
2023-05-24T05:27:16.677Z,8.25
2023-05-24T05:29:44.532Z,8.07
2023-05-24T05:32:12.811Z,8.05
2023-05-24T05:34:41.268Z,7.97
2023-05-24T05:37:09.756Z,8.40
2023-05-24T05:39:37.374Z,9.18
2023-05-24T05:42:06.105Z,8.38
2023-05-24T05:44:33.933Z,7.75
2023-05-24T05:47:03.997Z,8.00
2023-05-24T05:49:33.265Z,8.13
2023-05-24T05:52:01.936Z,8.43
2023-05-24T05:54:31.544Z,7.85
2023-05-24T05:57:01.692Z,7.68
2023-05-24T05:59:29.936Z,7.40
2023-05-24T06:01:58.260Z,8.13
2023-05-24T06:04:26.070Z,7.43
2023-05-24T06:06:54.423Z,8.35
2023-05-24T06:09:22.288Z,7.28
2023-05-24T06:11:50.646Z,7.28
2023-05-24T06:14:20.331Z,6.90
2023-05-24T06:16:48.984Z,7.22
2023-05-24T06:19:17.381Z,7.45
2023-05-24T06:21:49.013Z,7.40
2023-05-24T06:24:21.745Z,7.57
2023-05-24T06:26:51.964Z,7.55
2023-05-24T06:29:21.298Z,7.60
2023-05-24T06:31:50.622Z,7.55
2023-05-24T06:34:21.760Z,7.93
2023-05-24T06:36:51.814Z,7.30
2023-05-24T06:39:19.901Z,7.07
2023-05-24T06:41:51.404Z,6.88
2023-05-24T06:44:32.193Z,6.93
2023-05-24T06:47:04.824Z,6.95
2023-05-24T06:49:33.383Z,6.88
2023-05-24T06:52:02.092Z,7.03
2023-05-24T06:54:30.000Z,7.13
2023-05-24T06:56:59.455Z,6.60
2023-05-24T06:59:27.500Z,6.53
2023-05-24T07:02:00.073Z,7.07
2023-05-24T07:04:30.061Z,6.57
2023-05-24T07:06:58.668Z,6.78
2023-05-24T07:09:27.088Z,6.30
2023-05-24T07:11:55.604Z,6.30
2023-05-24T07:14:24.476Z,6.85
2023-05-24T07:16:52.897Z,6.30
2023-05-24T07:19:22.226Z,6.13
2023-05-24T07:21:50.752Z,5.95
2023-05-24T07:24:18.564Z,5.50
2023-05-24T07:26:47.154Z,6.03
2023-05-24T07:29:15.214Z,5.50
2023-05-24T07:31:43.763Z,6.07
2023-05-24T07:34:11.757Z,5.57
2023-05-24T07:36:41.595Z,5.80
2023-05-24T07:39:16.132Z,6.00
2023-05-24T07:41:45.186Z,5.90
2023-05-24T07:44:13.722Z,5.97
2023-05-24T07:46:42.236Z,5.93
2023-05-24T07:49:10.112Z,6.07
2023-05-24T07:51:39.599Z,5.68
2023-05-24T07:54:07.463Z,6.22
2023-05-24T07:56:36.817Z,6.45
2023-05-24T07:59:05.049Z,6.05
2023-05-24T08:01:38.246Z,9.40
2023-05-24T08:06:35.157Z,6.40
2023-05-24T08:09:04.697Z,5.43
2023-05-24T08:11:33.249Z,6.10
2023-05-24T08:14:01.922Z,6.32
2023-05-24T08:16:32.462Z,6.40
2023-05-24T08:19:00.352Z,6.15
2023-05-24T08:21:29.413Z,5.88
2023-05-24T08:23:57.810Z,5.70
2023-05-24T08:26:26.764Z,5.40
2023-05-24T08:28:55.399Z,5.38
2023-05-24T08:31:24.194Z,4.97
2023-05-24T08:33:53.057Z,4.60
2023-05-24T08:36:20.896Z,5.35
2023-05-24T08:38:48.738Z,4.72
2023-05-24T08:41:16.891Z,5.53
2023-05-24T08:43:45.103Z,5.35
2023-05-24T08:46:15.196Z,5.10
2023-05-24T08:48:47.723Z,4.70
2023-05-24T08:51:16.931Z,5.13
2023-05-24T08:53:49.222Z,4.43
2023-05-24T08:56:19.022Z,5.10
2023-05-24T08:58:47.709Z,5.13
2023-05-24T09:01:17.505Z,4.97
2023-05-24T09:03:49.037Z,4.30
2023-05-24T09:06:18.796Z,5.00
2023-05-24T09:08:46.763Z,5.82
2023-05-24T09:11:16.696Z,4.68
2023-05-24T09:13:48.501Z,4.75
2023-05-24T09:16:17.423Z,6.07
2023-05-24T09:18:45.232Z,4.65
2023-05-24T09:21:14.160Z,5.90
2023-05-24T09:23:42.540Z,5.72
2023-05-24T09:26:11.599Z,5.10
2023-05-24T09:28:41.948Z,5.32
2023-05-24T09:31:10.290Z,5.32
2023-05-24T09:33:39.655Z,5.22
2023-05-24T09:36:08.887Z,4.70
2023-05-24T09:38:37.373Z,5.28
2023-05-24T09:41:08.619Z,5.10
2023-05-24T09:43:48.922Z,5.38
2023-05-24T09:46:19.712Z,4.85
2023-05-24T09:49:04.218Z,5.22
2023-05-24T09:51:33.180Z,5.13
2023-05-24T09:54:02.786Z,4.97
2023-05-24T09:56:33.830Z,4.97
2023-05-24T09:59:10.856Z,5.05
2023-05-24T10:01:39.591Z,5.20
2023-05-24T10:04:10.288Z,5.35
2023-05-24T10:06:40.243Z,5.65
2023-05-24T10:09:09.872Z,5.22
2023-05-24T10:11:38.142Z,4.90
2023-05-24T10:14:07.961Z,5.40
2023-05-24T10:16:38.453Z,4.80
2023-05-24T10:19:07.581Z,6.63
2023-05-24T10:21:39.346Z,5.13
2023-05-24T10:24:09.188Z,5.40
2023-05-24T10:26:38.812Z,5.00
2023-05-24T10:29:10.075Z,5.30
2023-05-24T10:31:39.881Z,5.10
2023-05-24T10:34:09.226Z,5.47
2023-05-24T10:36:40.613Z,5.90
2023-05-24T10:39:12.276Z,5.68
2023-05-24T10:41:42.418Z,5.78
2023-05-24T10:44:14.816Z,7.93
2023-05-24T10:47:04.091Z,6.60
2023-05-24T10:49:32.358Z,7.25
2023-05-24T10:52:09.304Z,6.57
2023-05-24T10:54:41.141Z,6.82
2023-05-24T10:57:13.429Z,7.65
2023-05-24T10:59:44.776Z,7.20
2023-05-24T11:02:17.039Z,6.97
2023-05-24T11:04:49.760Z,6.50
2023-05-24T11:07:19.633Z,6.20
2023-05-24T11:09:57.287Z,6.72
2023-05-24T11:12:32.832Z,6.93
2023-05-24T11:15:03.409Z,7.25
2023-05-24T11:17:32.154Z,6.53
2023-05-24T11:20:05.406Z,6.85
2023-05-24T11:22:34.023Z,7.38
2023-05-24T11:25:06.245Z,6.38
2023-05-24T11:27:35.714Z,7.30
2023-05-24T11:30:04.588Z,6.78
2023-05-24T11:32:33.903Z,6.65
2023-05-24T11:35:02.113Z,6.68
2023-05-24T11:37:42.546Z,7.05
2023-05-24T11:40:15.184Z,6.88
2023-05-24T11:42:44.657Z,6.93
2023-05-24T11:45:13.912Z,6.93
2023-05-24T11:47:42.167Z,7.35
2023-05-24T11:50:10.817Z,6.93
2023-05-24T11:52:41.971Z,6.68
2023-05-24T11:55:16.405Z,6.30
2023-05-24T11:57:50.315Z,6.60
2023-05-24T12:00:25.606Z,7.18
2023-05-24T12:02:57.439Z,6.68
2023-05-24T12:05:25.502Z,6.70
2023-05-24T12:08:06.602Z,6.85
2023-05-24T12:10:39.147Z,6.90
2023-05-24T12:13:13.838Z,6.40
2023-05-24T12:15:41.755Z,6.97
2023-05-24T12:18:23.448Z,6.55
2023-05-24T12:20:51.935Z,6.28
2023-05-24T12:23:22.055Z,6.30
2023-05-24T12:25:50.401Z,6.90
2023-05-24T12:28:22.138Z,6.72
2023-05-24T12:30:50.566Z,5.88
2023-05-24T12:33:21.940Z,7.80
2023-05-24T12:35:50.324Z,7.07
2023-05-24T12:38:25.908Z,7.10
2023-05-24T12:43:28.057Z,7.13
2023-05-24T12:45:56.109Z,6.38
2023-05-24T12:48:24.520Z,6.97
2023-05-24T12:50:52.474Z,6.85
2023-05-24T12:53:24.241Z,7.50
2023-05-24T12:55:55.972Z,7.18
2023-05-24T12:58:24.300Z,7.20
2023-05-24T13:00:52.373Z,7.03
2023-05-24T13:03:20.500Z,6.90
2023-05-24T13:05:52.004Z,6.80
2023-05-24T13:08:22.328Z,6.88
2023-05-24T13:10:51.159Z,6.95
2023-05-24T13:13:19.728Z,6.95
2023-05-24T13:15:47.510Z,7.50
2023-05-24T13:18:16.385Z,7.35
2023-05-24T13:20:44.502Z,7.80
2023-05-24T13:23:13.551Z,7.40
2023-05-24T13:25:41.528Z,6.88
2023-05-24T13:28:10.170Z,7.30
2023-05-24T13:30:38.891Z,7.70
2023-05-24T13:33:07.407Z,7.13
2023-05-24T13:35:35.309Z,7.25
2023-05-24T13:38:04.092Z,7.20
2023-05-24T13:40:32.201Z,6.63
2023-05-24T13:42:59.772Z,7.10
2023-05-24T13:45:28.084Z,6.90
2023-05-24T13:48:03.922Z,7.10
2023-05-24T13:50:34.288Z,6.60
2023-05-24T13:53:04.141Z,6.53
2023-05-24T13:55:34.701Z,6.95
2023-05-24T13:58:05.208Z,6.30
2023-05-24T14:00:33.573Z,6.80
2023-05-24T14:03:02.278Z,6.40
2023-05-24T14:05:31.236Z,5.65
2023-05-24T14:08:06.811Z,6.07
2023-05-24T14:10:37.294Z,6.00
2023-05-24T14:15:38.169Z,5.95
2023-05-24T14:18:08.711Z,6.30
2023-05-24T14:20:38.148Z,6.80
2023-05-24T14:23:10.400Z,6.97
2023-05-24T14:25:38.263Z,6.68
2023-05-24T14:28:08.945Z,6.10
2023-05-24T14:30:38.201Z,6.50
2023-05-24T14:33:08.720Z,6.60
2023-05-24T14:35:40.254Z,7.10
2023-05-24T14:38:10.801Z,6.53
2023-05-24T14:40:40.409Z,6.68
2023-05-24T14:43:11.108Z,6.25
2023-05-24T14:45:44.072Z,7.20
2023-05-24T14:48:13.169Z,7.30
2023-05-24T14:50:42.166Z,7.40
2023-05-24T14:53:12.988Z,7.97
2023-05-24T14:55:43.489Z,7.20
2023-05-24T14:58:13.258Z,7.63
2023-05-24T15:00:43.038Z,6.90
2023-05-24T15:03:13.091Z,6.10
2023-05-24T15:05:42.688Z,5.80
2023-05-24T15:08:11.874Z,5.80
2023-05-24T15:10:39.859Z,7.10
2023-05-24T15:13:08.553Z,6.47
2023-05-24T15:15:36.895Z,5.57
2023-05-24T15:18:05.134Z,5.80
2023-05-24T15:20:35.657Z,5.68
2023-05-24T15:23:04.721Z,6.05
2023-05-24T15:25:32.718Z,6.75
2023-05-24T15:28:01.821Z,5.88
2023-05-24T15:30:30.297Z,6.65
2023-05-24T15:32:58.547Z,5.45
2023-05-24T15:35:27.088Z,5.43
2023-05-24T15:37:55.713Z,5.40
2023-05-24T15:40:24.941Z,5.45
2023-05-24T15:42:53.367Z,6.85
2023-05-24T15:45:21.895Z,5.03
2023-05-24T15:47:50.273Z,6.13
2023-05-24T15:50:23.611Z,6.45
2023-05-24T15:52:54.103Z,6.30
2023-05-24T15:55:22.344Z,6.68
2023-05-24T15:57:50.636Z,6.43
2023-05-24T16:00:18.802Z,6.40
2023-05-24T16:02:47.606Z,5.93
2023-05-24T16:05:16.334Z,8.25
2023-05-24T16:07:45.126Z,6.78
2023-05-24T16:10:13.402Z,7.45
2023-05-24T16:12:42.353Z,8.00
2023-05-24T16:15:11.007Z,7.90
2023-05-24T16:17:39.545Z,8.10
2023-05-24T16:20:08.088Z,8.07
2023-05-24T16:22:37.414Z,7.35
2023-05-24T16:25:06.090Z,7.32
2023-05-24T16:27:34.681Z,6.88
2023-05-24T16:30:03.288Z,7.28
2023-05-24T16:32:31.563Z,7.95
2023-05-24T16:34:59.492Z,7.75
2023-05-24T16:37:27.725Z,7.32
2023-05-24T16:39:56.116Z,7.60
2023-05-24T16:42:24.216Z,7.85
2023-05-24T16:44:52.030Z,7.95
2023-05-24T16:47:20.329Z,9.68
2023-05-24T16:49:48.270Z,10.20
2023-05-24T16:52:16.746Z,11.52
2023-05-24T16:54:44.868Z,12.10
2023-05-24T16:57:13.406Z,12.90
2023-05-24T16:59:42.789Z,15.13
2023-05-24T17:02:10.857Z,15.20
2023-05-24T17:04:38.865Z,17.00
2023-05-24T17:07:07.198Z,18.38
2023-05-24T17:09:35.220Z,20.90
2023-05-24T17:12:04.002Z,21.55
2023-05-24T17:14:32.364Z,22.52
2023-05-24T17:17:00.871Z,22.75
2023-05-24T17:19:28.836Z,21.88
2023-05-24T17:21:57.584Z,22.63
2023-05-24T17:24:28.275Z,21.50
2023-05-24T17:26:57.072Z,21.17
2023-05-24T17:29:26.855Z,21.83
2023-05-24T17:31:55.566Z,21.25
2023-05-24T17:34:23.590Z,21.00
2023-05-24T17:36:52.000Z,20.65
2023-05-24T17:39:21.670Z,21.27
2023-05-24T17:41:49.965Z,20.05
2023-05-24T17:44:17.455Z,20.77
2023-05-24T17:46:45.981Z,20.92
2023-05-24T17:49:14.656Z,20.52
2023-05-24T17:51:43.356Z,19.33
2023-05-24T17:54:11.410Z,19.67
2023-05-24T17:56:39.862Z,19.52
2023-05-24T17:59:07.886Z,19.48
2023-05-24T18:01:36.692Z,19.20
2023-05-24T18:04:06.223Z,19.83
2023-05-24T18:06:37.668Z,18.77
2023-05-24T18:09:05.527Z,18.92
2023-05-24T18:11:33.705Z,19.92
2023-05-24T18:14:03.827Z,18.27
2023-05-24T18:16:32.190Z,18.80
2023-05-24T18:18:59.900Z,18.88
2023-05-24T18:21:28.548Z,18.77
2023-05-24T18:23:56.442Z,18.67
2023-05-24T18:26:24.747Z,19.10
2023-05-24T18:28:52.771Z,18.52
2023-05-24T18:31:22.178Z,18.48
2023-05-24T18:33:50.658Z,18.58
2023-05-24T18:36:19.149Z,18.40
2023-05-24T18:38:47.604Z,17.15
2023-05-24T18:41:16.900Z,16.95
2023-05-24T18:43:45.535Z,17.95
2023-05-24T18:46:15.446Z,17.38
2023-05-24T18:48:44.082Z,16.80
2023-05-24T18:51:12.503Z,17.55
2023-05-24T18:53:40.905Z,18.17
2023-05-24T18:56:09.289Z,18.98
2023-05-24T18:58:37.461Z,17.10
2023-05-24T19:01:06.078Z,17.38
2023-05-24T19:03:34.093Z,17.85
2023-05-24T19:06:02.366Z,18.00
2023-05-24T19:08:30.117Z,18.33
2023-05-24T19:10:58.742Z,18.73
2023-05-24T19:13:27.902Z,18.10
2023-05-24T19:15:57.057Z,16.80
2023-05-24T19:18:24.915Z,18.95
2023-05-24T19:20:53.710Z,18.10
2023-05-24T19:23:21.590Z,19.30
2023-05-24T19:25:50.883Z,18.55
2023-05-24T19:28:19.090Z,18.15
2023-05-24T19:30:47.310Z,18.38
2023-05-24T19:33:15.329Z,17.38
2023-05-24T19:35:44.454Z,18.00
2023-05-24T19:38:12.654Z,18.55
2023-05-24T19:40:41.123Z,17.83
2023-05-24T19:43:09.082Z,17.17
2023-05-24T19:45:37.593Z,17.02
2023-05-24T19:48:07.307Z,17.67
2023-05-24T19:50:36.563Z,17.65
2023-05-24T19:53:04.673Z,17.95
2023-05-24T19:55:33.159Z,18.05
2023-05-24T19:58:00.970Z,17.83
2023-05-24T20:00:29.302Z,18.25
2023-05-24T20:02:57.577Z,17.35
2023-05-24T20:05:26.289Z,18.58
2023-05-24T20:07:54.376Z,17.70
2023-05-24T20:10:23.286Z,17.63
2023-05-24T20:12:51.313Z,18.40
2023-05-24T20:15:19.551Z,18.73
2023-05-24T20:17:48.927Z,17.88
2023-05-24T20:20:17.645Z,17.98
2023-05-24T20:22:45.630Z,17.58
2023-05-24T20:25:14.362Z,17.23
2023-05-24T20:27:42.797Z,17.90
2023-05-24T20:30:12.167Z,18.48
2023-05-24T20:32:40.195Z,17.38
2023-05-24T20:35:09.781Z,17.42
2023-05-24T20:37:38.256Z,18.50
2023-05-24T20:40:07.840Z,18.48
2023-05-24T20:42:35.890Z,18.27
2023-05-24T20:45:04.675Z,18.70
2023-05-24T20:47:32.952Z,17.98
2023-05-24T20:50:01.376Z,17.75
2023-05-24T20:52:29.575Z,17.98
2023-05-24T20:54:57.918Z,18.13
2023-05-24T20:57:26.118Z,18.92
2023-05-24T20:59:54.562Z,18.13
2023-05-24T21:02:22.916Z,18.95
2023-05-24T21:04:51.722Z,18.13
2023-05-24T21:07:19.639Z,17.98
2023-05-24T21:09:47.603Z,19.33
2023-05-24T21:12:16.032Z,19.10
2023-05-24T21:14:44.988Z,18.55
2023-05-24T21:17:12.815Z,18.63
2023-05-24T21:19:42.047Z,19.00
2023-05-24T21:22:10.237Z,19.58
2023-05-24T21:24:38.689Z,19.75
2023-05-24T21:27:08.239Z,19.98
2023-05-24T21:29:38.694Z,17.55
2023-05-24T21:32:06.662Z,18.67
2023-05-24T21:34:36.254Z,18.65
2023-05-24T21:37:05.259Z,19.05
2023-05-24T21:39:33.658Z,19.70
2023-05-24T21:42:02.329Z,19.33
2023-05-24T21:44:30.893Z,19.83
2023-05-24T21:46:58.895Z,19.85
2023-05-24T21:49:27.795Z,20.23
2023-05-24T21:51:55.955Z,20.15
2023-05-24T21:54:24.206Z,19.02
2023-05-24T21:56:51.888Z,20.73
2023-05-24T21:59:21.579Z,20.63
2023-05-24T22:01:49.933Z,18.95
2023-05-24T22:04:18.327Z,21.05
2023-05-24T22:06:46.602Z,20.63
2023-05-24T22:09:15.411Z,20.10
2023-05-24T22:11:43.784Z,19.27
2023-05-24T22:14:12.577Z,20.27
2023-05-24T22:16:40.603Z,21.02
2023-05-24T22:19:16.929Z,20.50
2023-05-24T22:21:52.610Z,20.08
2023-05-24T22:26:50.097Z,20.52
2023-05-24T22:29:20.520Z,20.60
2023-05-24T22:31:48.495Z,21.73
2023-05-24T22:34:26.991Z,21.63
2023-05-24T22:36:55.715Z,21.73
2023-05-24T22:39:24.670Z,21.75
2023-05-24T22:41:53.131Z,22.95
2023-05-24T22:44:21.744Z,20.73
2023-05-24T22:46:50.288Z,21.05
2023-05-24T22:49:21.188Z,22.20
2023-05-24T22:51:51.140Z,22.73
2023-05-24T22:54:20.420Z,22.38
2023-05-24T22:56:48.270Z,21.73
2023-05-24T22:59:16.513Z,21.52
2023-05-24T23:01:45.521Z,21.35
2023-05-24T23:04:21.205Z,22.27
2023-05-24T23:06:53.155Z,21.63
2023-05-24T23:09:42.051Z,21.45
2023-05-24T23:12:11.869Z,21.63
2023-05-24T23:14:42.427Z,21.23
2023-05-24T23:17:13.775Z,22.33
2023-05-24T23:19:43.618Z,22.83
2023-05-24T23:22:24.135Z,22.85
2023-05-24T23:24:53.059Z,22.60
2023-05-24T23:27:21.666Z,23.10
2023-05-24T23:29:50.288Z,24.52
2023-05-24T23:32:18.147Z,22.95
2023-05-24T23:34:46.698Z,23.73
2023-05-24T23:37:14.544Z,24.20
2023-05-24T23:39:43.088Z,23.40
2023-05-24T23:42:11.101Z,23.98
2023-05-24T23:44:39.555Z,24.38
2023-05-24T23:47:08.063Z,25.30
2023-05-24T23:49:36.921Z,23.88
2023-05-24T23:52:04.992Z,25.05
2023-05-24T23:54:33.287Z,23.98
2023-05-24T23:57:01.222Z,25.73
2023-05-24T23:59:29.687Z,25.25
